createdAt,value
2018-10-01T00:05:01.919Z,5.04
2018-10-01T00:10:56.963Z,4.59
2018-10-01T00:16:51.968Z,4.5
2018-10-01T00:22:46.946Z,4.53
2018-10-01T00:28:41.953Z,4.33
2018-10-01T00:34:36.980Z,4.73
2018-10-01T00:40:31.991Z,4.3
2018-10-01T00:46:26.962Z,4.6
2018-10-01T00:52:22.069Z,5.03
2018-10-01T00:58:16.963Z,4.69
2018-10-01T01:04:11.976Z,4.89
2018-10-01T01:10:07.026Z,9.15
2018-10-01T01:16:01.994Z,9.2
2018-10-01T01:21:57.024Z,9.51
2018-10-01T01:27:51.991Z,9.83
2018-10-01T01:33:47.063Z,10.6
2018-10-01T01:39:41.995Z,9.14
2018-10-01T01:45:37.021Z,11.2
2018-10-01T01:51:32.028Z,11.12
2018-10-01T01:57:27.012Z,11.87
2018-10-01T02:03:22.009Z,13.2
2018-10-01T02:09:17.061Z,11.72
2018-10-01T02:15:12.026Z,12.4
2018-10-01T02:21:07.032Z,12.97
2018-10-01T02:27:02.039Z,14.27
2018-10-01T02:32:57.047Z,16.5
2018-10-01T02:38:52.062Z,14.93
2018-10-01T02:44:47.037Z,14.65
2018-10-01T02:50:42.109Z,17.89
2018-10-01T02:56:37.059Z,16.94
2018-10-01T03:02:32.101Z,18.1
2018-10-01T03:08:27.053Z,17.79
2018-10-01T03:14:22.114Z,19.68
2018-10-01T03:20:17.103Z,19.53
2018-10-01T03:26:12.124Z,19.63
2018-10-01T03:32:07.075Z,20.47
2018-10-01T03:38:02.100Z,19.84
2018-10-01T03:43:57.124Z,22.43
2018-10-01T03:49:52.079Z,25.03
2018-10-01T03:55:47.107Z,24.17
2018-10-01T04:01:42.099Z,24.06
2018-10-01T04:07:37.166Z,24.47
2018-10-01T04:13:32.109Z,27.06
2018-10-01T04:19:27.137Z,27.66
2018-10-01T04:25:22.187Z,28.94
2018-10-01T04:31:17.170Z,31.1
2018-10-01T04:37:12.122Z,31.97
2018-10-01T04:43:07.151Z,34.63
2018-10-01T04:49:02.116Z,33.61
2018-10-01T04:54:57.123Z,31.23
2018-10-01T05:00:52.146Z,31.92
2018-10-01T05:06:47.165Z,32.71
2018-10-01T05:12:42.138Z,34.7
2018-10-01T05:18:37.138Z,34.3
2018-10-01T05:24:32.160Z,33.31
2018-10-01T05:30:27.185Z,33.94
2018-10-01T05:36:22.176Z,33.59
2018-10-01T05:42:17.147Z,32.14
2018-10-01T05:48:12.202Z,32.72
2018-10-01T05:54:07.149Z,31.67
2018-10-01T06:00:02.178Z,30.4
2018-10-01T06:05:57.210Z,29.58
2018-10-01T06:11:52.268Z,31.61
2018-10-01T06:17:47.207Z,31.55
2018-10-01T06:23:42.192Z,30.92
2018-10-01T06:29:37.193Z,30.36
2018-10-01T06:35:32.321Z,31.06
2018-10-01T06:41:27.257Z,31.98
2018-10-01T06:47:22.212Z,32.82
2018-10-01T06:53:17.223Z,33.6
2018-10-01T06:59:12.267Z,32.96
2018-10-01T07:05:07.232Z,36.55
2018-10-01T07:11:02.208Z,37.04
2018-10-01T07:16:57.234Z,35.75
2018-10-01T07:22:52.223Z,40.57
2018-10-01T07:28:47.209Z,41.76
2018-10-01T07:34:42.244Z,39.52
2018-10-01T07:40:37.252Z,39.36
2018-10-01T07:46:32.239Z,38.14
2018-10-01T07:52:27.251Z,36.07
2018-10-01T07:58:22.256Z,36.09
2018-10-01T08:04:17.252Z,36.27
2018-10-01T08:10:12.320Z,35.56
2018-10-01T08:16:07.269Z,35.54
2018-10-01T08:22:02.262Z,34.18
2018-10-01T08:27:57.324Z,34.13
2018-10-01T08:33:52.280Z,33.01
2018-10-01T08:39:47.311Z,31.85
2018-10-01T08:45:42.305Z,28.9
2018-10-01T08:51:37.354Z,25.12
2018-10-01T08:57:32.276Z,25.58
2018-10-01T09:03:27.333Z,24.45
2018-10-01T09:09:22.308Z,23.97
2018-10-01T09:15:17.279Z,31.61
2018-10-01T09:21:12.380Z,31.14
2018-10-01T09:27:07.297Z,27
2018-10-01T09:33:02.318Z,26.61
2018-10-01T09:38:57.299Z,28.48
2018-10-01T09:44:52.317Z,28.61
2018-10-01T09:50:47.323Z,27.23
2018-10-01T09:56:42.449Z,23.56
2018-10-01T10:02:37.454Z,21.67
2018-10-01T10:08:32.451Z,21.48
2018-10-01T10:14:27.439Z,23.14
2018-10-01T10:20:22.462Z,22.78
2018-10-01T10:26:17.379Z,22.94
2018-10-01T10:32:12.547Z,22.67
2018-10-01T10:38:07.429Z,25.71
2018-10-01T10:44:02.409Z,25.39
2018-10-01T10:49:57.411Z,24.35
2018-10-01T10:55:52.399Z,27.13
2018-10-01T11:01:47.376Z,26.44
2018-10-01T11:07:42.449Z,27.38
2018-10-01T11:13:37.407Z,28.68
2018-10-01T11:19:32.402Z,27.68
2018-10-01T11:25:27.513Z,29.49
2018-10-01T11:31:22.476Z,27.73
2018-10-01T11:37:17.392Z,29.67
2018-10-01T11:43:12.393Z,35.15
2018-10-01T11:49:07.434Z,42.64
2018-10-01T11:55:02.395Z,33.1
2018-10-01T12:00:57.407Z,29.69
2018-10-01T12:06:52.413Z,34.04
2018-10-01T12:12:47.521Z,37.14
2018-10-01T12:18:42.430Z,34.14
2018-10-01T12:24:37.430Z,28.89
2018-10-01T12:30:32.458Z,18.96
2018-10-01T12:36:27.432Z,17.2
2018-10-01T12:42:22.445Z,14
2018-10-01T12:48:17.437Z,12.49
2018-10-01T12:54:12.447Z,11.2
2018-10-01T13:00:07.567Z,10.58
2018-10-01T13:06:02.505Z,9.87
2018-10-01T13:11:57.485Z,10.36
2018-10-01T13:17:52.467Z,8.38
2018-10-01T13:23:47.469Z,7.78
2018-10-01T13:29:42.526Z,6.93
2018-10-01T13:35:37.510Z,7.26
2018-10-01T13:41:32.477Z,5.89
2018-10-01T13:47:27.470Z,3.78
2018-10-01T13:53:22.524Z,3.53
2018-10-01T13:59:17.481Z,3.14
2018-10-01T14:05:12.512Z,3.47
2018-10-01T14:11:07.530Z,3.84
2018-10-01T14:17:02.531Z,3.21
2018-10-01T14:22:57.532Z,5.94
2018-10-01T14:28:52.545Z,4.23
2018-10-01T14:34:47.562Z,4.22
2018-10-01T14:40:42.583Z,4.13
2018-10-01T14:46:37.565Z,4.96
2018-10-01T14:52:32.531Z,5.28
2018-10-01T14:58:27.561Z,8.78
2018-10-01T15:04:22.537Z,7.01
2018-10-01T15:10:17.582Z,7.83
2018-10-01T15:16:12.709Z,7.55
2018-10-01T15:22:07.580Z,7.31
2018-10-01T15:28:02.608Z,6.78
2018-10-01T15:33:57.575Z,8.98
2018-10-01T15:39:52.581Z,7.15
2018-10-01T15:45:47.579Z,7.01
2018-10-01T15:51:42.560Z,7.75
2018-10-01T15:57:37.574Z,8.19
2018-10-01T16:03:32.601Z,6.53
2018-10-01T16:09:27.609Z,6.46
2018-10-01T16:15:22.597Z,6.2
2018-10-01T16:21:17.613Z,6.87
2018-10-01T16:27:12.605Z,7.41
2018-10-01T16:33:07.615Z,7.63
2018-10-01T16:39:02.673Z,7.21
2018-10-01T16:44:57.634Z,7.37
2018-10-01T16:50:52.646Z,7.58
2018-10-01T16:56:47.628Z,7.62
2018-10-01T17:02:42.635Z,8.83
2018-10-01T17:08:37.638Z,7.99
2018-10-01T17:14:32.638Z,6.34
2018-10-01T17:20:27.645Z,6.35
2018-10-01T17:26:22.684Z,3.14
2018-10-01T17:32:17.667Z,2.18
2018-10-01T17:38:12.710Z,1.86
2018-10-01T17:44:07.680Z,1.79
2018-10-01T17:50:02.712Z,1.5
2018-10-01T17:55:57.713Z,1.37
2018-10-01T18:01:52.692Z,1.1
2018-10-01T18:07:47.652Z,1.11
2018-10-01T18:13:42.694Z,1.75
2018-10-01T18:19:37.706Z,2.97
2018-10-01T18:25:32.654Z,4.59
2018-10-01T18:31:27.703Z,1.41
2018-10-01T18:37:22.715Z,1.09
2018-10-01T18:43:17.707Z,1.28
2018-10-01T18:49:13.407Z,1.53
2018-10-01T18:55:07.693Z,1.19
2018-10-01T19:01:02.695Z,1.12
2018-10-01T19:06:57.716Z,1.85
2018-10-01T19:12:52.756Z,1.01
2018-10-01T19:18:47.773Z,0.82
2018-10-01T19:24:42.721Z,1.27
2018-10-01T19:30:37.819Z,1.1
2018-10-01T19:36:32.732Z,0.98
2018-10-01T19:42:27.720Z,1.06
2018-10-01T19:48:22.733Z,1.24
2018-10-01T19:54:17.745Z,1.44
2018-10-01T20:00:12.778Z,1.11
2018-10-01T20:06:07.756Z,1.39
2018-10-01T20:12:02.751Z,1.44
2018-10-01T20:17:57.744Z,2.02
2018-10-01T20:23:52.839Z,1.34
2018-10-01T20:29:47.975Z,1.63
2018-10-01T20:35:42.883Z,1.8
2018-10-01T20:41:37.791Z,1.89
2018-10-01T20:47:32.766Z,1.97
2018-10-01T20:53:27.838Z,2.26
2018-10-01T20:59:22.876Z,2.41
2018-10-01T21:05:17.758Z,2.63
2018-10-01T21:11:12.775Z,3.49
2018-10-01T21:17:07.813Z,3.16
2018-10-01T21:23:02.790Z,3.73
2018-10-01T21:28:57.809Z,3.09
2018-10-01T21:34:52.856Z,2.12
2018-10-01T21:40:47.820Z,2.82
2018-10-01T21:46:42.816Z,2.37
2018-10-01T21:52:37.828Z,2.87
2018-10-01T21:58:32.806Z,2.82
2018-10-01T22:04:27.820Z,3.04
2018-10-01T22:10:22.829Z,3.03
2018-10-01T22:16:17.850Z,2.47
2018-10-01T22:22:12.838Z,2.05
2018-10-01T22:28:07.851Z,1.37
2018-10-01T22:34:02.872Z,1.33
2018-10-01T22:39:57.867Z,1.31
2018-10-01T22:45:52.842Z,1.47
2018-10-01T22:51:47.843Z,1.23
2018-10-01T22:57:42.845Z,1.17
2018-10-01T23:03:37.872Z,1.17
2018-10-01T23:09:32.850Z,0.9
2018-10-01T23:15:27.912Z,0.97
2018-10-01T23:21:22.853Z,0.91
2018-10-01T23:27:17.866Z,1.13
2018-10-01T23:33:12.864Z,1
2018-10-01T23:39:07.906Z,0.89
2018-10-01T23:45:02.911Z,0.99
2018-10-01T23:50:57.883Z,1
2018-10-01T23:56:52.874Z,1
